Covington, Michigan
Current Conditions -  °F | °C
As of 4:55 PM on Thursday 27 Nov 2014 (Local Time) from KLNL Reporting Station
Haze Haze  
Wind Chill:   Ceiling: 2700
Heat Index:   Visibility: 5mi
Dew Point:   Wind: 0mph
Humidity: 78%   Direction: NA
Pressure: 30.28"   Gusts: NA
Location:  46.54°N, 88.54°W
Report Text: KLNL 272155Z AUTO 00000KT 5SM HZ SCT019 BKN027 M13/M16 A3028 RMK AO2 T11261157
Loading
Personal Weather Stations






























Interactive Weather Map New forecast layout! Learn more

10-Day Weather Forecast

Advertisements
Track Severe Weather on mobile